Time;durP1;ratioP1;P1;durP2;ratioP2;P2;SDS_P1;SDS_P2;PMS_P1;PMS_P2;Temp;Humidity;BMP_temperature;BMP_pressure;BME280_temperature;BME280_humidity;BME280_pressure;Samples;Min_cycle;Max_cycle;Signal;HPM_P1;HPM_P2
2022/08/12 00:42:54;;;;;;;;;;;;;;;23.35;48.17;100933.13;7404176;19;1523;-57
2022/08/12 00:45:22;;;;;;;;;;;;;;;23.34;48.38;100922.53;7403472;19;1281;-57
2022/08/12 00:47:53;;;;;;;;;;;;;;;23.34;48.27;100914.44;7403903;19;1595;-57
2022/08/12 00:50:22;;;;;;;;;;;;;;;23.31;48.29;100929.06;7404581;19;1643;-56
2022/08/12 00:52:52;;;;;;;;;;;;;;;23.32;48.51;100933.47;7404738;19;1614;-58
2022/08/12 00:55:23;;;;;;;;;;;;;;;23.39;48.32;100922.88;7402925;19;1758;-57
2022/08/12 00:57:52;;;;;;;;;;;;;;;23.41;48.29;100924.38;7404579;19;1411;-59
2022/08/12 01:00:22;;;;;;;;;;;;;;;23.36;48.55;100924.03;7403120;19;1669;-56
2022/08/12 01:02:52;;;;;;;;;;;;;;;23.40;48.16;100919.19;7402875;19;1618;-57
2022/08/12 01:13:29;;;;;;;;;;;;;;;23.48;48.07;100929.16;7404588;19;1571;-57
2022/08/12 01:15:58;;;;;;;;;;;;;;;23.54;47.96;100929.38;7403686;19;1853;-60
2022/08/12 01:18:28;;;;;;;;;;;;;;;23.65;47.81;100933.63;7402424;19;1642;-60
2022/08/12 01:21:05;;;;;;;;;;;;;;;23.63;47.72;100911.34;7403071;19;1527;-59
2022/08/12 01:23:39;;;;;;;;;;;;;;;23.60;47.48;100925.16;7408827;19;1457;-60
2022/08/12 01:26:12;;;;;;;;;;;;;;;23.59;47.60;100928.88;7411576;19;1712;-56
2022/08/12 01:28:42;;;;;;;;;;;;;;;23.53;47.57;100927.66;7410372;19;1829;-60
2022/08/12 01:31:11;;;;;;;;;;;;;;;23.46;48.00;100923.06;7409325;19;1669;-56
2022/08/12 01:33:42;;;;;;;;;;;;;;;23.41;47.96;100921.69;7409846;19;1750;-57
2022/08/12 01:36:12;;;;;;;;;;;;;;;23.36;48.01;100923.22;7409107;19;1842;-59
2022/08/12 01:38:43;;;;;;;;;;;;;;;23.26;48.12;100917.91;7409936;19;1613;-58
2022/08/12 01:41:15;;;;;;;;;;;;;;;23.27;47.96;100929.56;7410337;19;1509;-57
2022/08/12 01:43:45;;;;;;;;;;;;;;;23.35;47.77;100927.72;7409607;19;1558;-57
2022/08/12 01:46:22;;;;;;;;;;;;;;;23.28;48.21;100924.00;7409570;19;1547;-56
2022/08/12 01:48:55;;;;;;;;;;;;;;;23.32;47.82;100917.28;7408730;19;1654;-56
2022/08/12 01:51:33;;;;;;;;;;;;;;;23.24;47.92;100919.94;7408878;19;1760;-56
2022/08/12 01:54:04;;;;;;;;;;;;;;;23.35;47.94;100908.00;7409348;19;1536;-59
2022/08/12 01:56:42;;;;;;;;;;;;;;;23.48;47.63;100937.28;7408631;19;1857;-59
2022/08/12 02:01:55;;;;;;;;;;;;;;;23.32;47.70;100917.28;7402074;19;1420;-57
2022/08/12 02:12:53;;;;;;;;;;;;;;;23.12;48.15;100905.00;7409038;19;1238;-56
2022/08/12 02:15:26;;;;;;;;;;;;;;;23.14;47.99;100917.34;7409335;19;1539;-56
2022/08/12 02:18:04;;;;;;;;;;;;;;;23.24;47.56;100909.16;7405875;19;1854;-56
2022/08/12 02:20:37;;;;;;;;;;;;;;;23.20;47.99;100913.16;7409173;19;1772;-56
2022/08/12 02:23:08;;;;;;;;;;;;;;;23.27;47.72;100932.25;7408221;19;1558;-56
2022/08/12 02:25:39;;;;;;;;;;;;;;;23.08;48.39;100901.78;7408967;19;1518;-59
2022/08/12 02:28:10;;;;;;;;;;;;;;;23.12;48.15;100921.19;7407887;19;1350;-60
2022/08/12 02:30:41;;;;;;;;;;;;;;;22.92;48.30;100915.13;7408074;19;1702;-60
2022/08/12 02:33:09;;;;;;;;;;;;;;;22.88;48.29;100911.91;7406483;19;1607;-60
2022/08/12 02:35:38;;;;;;;;;;;;;;;22.90;48.54;100906.34;7407673;19;1530;-60
2022/08/12 02:38:07;;;;;;;;;;;;;;;22.92;48.33;100924.09;7403154;19;1875;-60
2022/08/12 02:40:37;;;;;;;;;;;;;;;22.90;48.64;100911.72;7406916;19;1210;-60
2022/08/12 02:43:07;;;;;;;;;;;;;;;22.96;48.49;100911.97;7408115;19;1559;-60
2022/08/12 02:45:44;;;;;;;;;;;;;;;23.20;47.79;100902.38;7407165;19;1333;-60
2022/08/12 02:48:16;;;;;;;;;;;;;;;23.17;48.08;100908.06;7406459;19;1310;-60
2022/08/12 02:50:47;;;;;;;;;;;;;;;23.12;47.78;100915.78;7407405;19;1229;-60
2022/08/12 02:53:16;;;;;;;;;;;;;;;23.13;47.79;100901.31;7408635;19;1055;-60
2022/08/12 02:55:44;;;;;;;;;;;;;;;23.19;47.36;100900.66;7406977;19;1760;-60
2022/08/12 02:58:13;;;;;;;;;;;;;;;23.17;47.50;100898.13;7405480;19;1858;-60
2022/08/12 03:00:45;;;;;;;;;;;;;;;23.19;47.29;100911.47;7408154;19;1532;-60
2022/08/12 03:03:16;;;;;;;;;;;;;;;23.12;47.55;100903.16;7407665;19;1626;-60
2022/08/12 03:05:49;;;;;;;;;;;;;;;23.05;47.92;100917.44;7406995;19;1679;-60
2022/08/12 03:08:20;;;;;;;;;;;;;;;23.09;47.67;100905.34;7408272;19;1028;-60
2022/08/12 03:10:51;;;;;;;;;;;;;;;22.86;48.04;100922.00;7406159;19;1702;-60
2022/08/12 03:13:22;;;;;;;;;;;;;;;23.14;47.61;100924.56;7405145;19;1726;-60
2022/08/12 03:15:54;;;;;;;;;;;;;;;23.03;47.61;100899.56;7403612;19;1322;-62
2022/08/12 03:18:25;;;;;;;;;;;;;;;23.00;48.34;100902.56;7403864;19;1842;-60
2022/08/12 03:20:55;;;;;;;;;;;;;;;23.08;48.06;100907.19;7405700;19;1267;-70
2022/08/12 03:23:23;;;;;;;;;;;;;;;22.99;48.54;100911.63;7404925;19;1379;-60
2022/08/12 03:25:54;;;;;;;;;;;;;;;22.84;48.52;100921.31;7402661;19;1613;-60
2022/08/12 03:31:07;;;;;;;;;;;;;;;22.77;48.55;100929.19;7402489;19;2570;-61
2022/08/12 03:33:37;;;;;;;;;;;;;;;22.73;48.37;100926.97;7402981;19;1500;-60
2022/08/12 03:36:05;;;;;;;;;;;;;;;22.82;48.08;100928.72;7405738;19;1286;-60
2022/08/12 03:38:37;;;;;;;;;;;;;;;22.83;48.34;100904.28;7404245;19;1845;-60
2022/08/12 04:02:44;;;;;;;;;;;;;;;22.84;48.35;100924.03;7405894;19;1523;-60
2022/08/12 04:05:19;;;;;;;;;;;;;;;22.87;48.25;100926.38;7405060;19;1591;-60
2022/08/12 04:07:47;;;;;;;;;;;;;;;22.83;48.48;100906.97;7403341;19;1571;-60
2022/08/12 04:10:16;;;;;;;;;;;;;;;22.96;48.14;100930.84;7405816;19;1610;-61
2022/08/12 04:15:27;;;;;;;;;;;;;;;23.10;48.43;100913.28;7406115;19;1122;-60
2022/08/12 04:17:59;;;;;;;;;;;;;;;23.18;48.32;100921.41;7402830;19;1858;-56
2022/08/12 04:20:28;;;;;;;;;;;;;;;23.27;47.95;100914.19;7404948;19;1406;-57
2022/08/12 04:22:56;;;;;;;;;;;;;;;23.29;48.20;100896.00;7403815;19;1446;-57
2022/08/12 04:25:25;;;;;;;;;;;;;;;23.32;48.28;100895.69;7405158;19;1587;-58
2022/08/12 04:27:54;;;;;;;;;;;;;;;23.32;48.13;100905.66;7402018;19;1634;-58
2022/08/12 04:30:22;;;;;;;;;;;;;;;23.39;48.07;100902.13;7403442;19;1547;-56
2022/08/12 04:32:52;;;;;;;;;;;;;;;23.38;48.26;100897.75;7403702;19;1531;-57
2022/08/12 04:35:24;;;;;;;;;;;;;;;23.43;48.15;100898.09;7403079;19;1594;-57
2022/08/12 04:37:55;;;;;;;;;;;;;;;23.56;48.03;100899.50;7399716;19;2208;-58
2022/08/12 04:40:25;;;;;;;;;;;;;;;23.53;48.02;100892.56;7403508;19;1519;-56
2022/08/12 04:42:53;;;;;;;;;;;;;;;23.51;48.19;100904.53;7403014;19;1555;-60
2022/08/12 04:45:22;;;;;;;;;;;;;;;23.56;48.33;100896.81;7404696;19;1344;-70
2022/08/12 04:47:50;;;;;;;;;;;;;;;23.55;48.56;100890.53;7404249;19;1333;-60
2022/08/12 04:50:20;;;;;;;;;;;;;;;23.50;48.38;100887.50;7403954;19;1674;-60
2022/08/12 04:52:51;;;;;;;;;;;;;;;23.47;48.81;100908.56;7401832;19;1491;-63
2022/08/12 04:55:21;;;;;;;;;;;;;;;23.58;48.69;100901.03;7402368;19;1356;-62
2022/08/12 04:57:49;;;;;;;;;;;;;;;23.63;48.45;100897.84;7405042;19;1891;-60
2022/08/12 05:00:18;;;;;;;;;;;;;;;23.64;48.57;100894.13;7410416;19;1650;-61
2022/08/12 05:02:47;;;;;;;;;;;;;;;23.68;48.47;100890.09;7409998;19;1771;-62
2022/08/12 05:05:19;;;;;;;;;;;;;;;23.70;48.38;100898.88;7411679;19;1281;-62
2022/08/12 05:07:47;;;;;;;;;;;;;;;23.86;48.52;100916.19;7409807;19;1731;-61
2022/08/12 05:10:20;;;;;;;;;;;;;;;24.00;48.15;100900.19;7410790;19;1313;-61
2022/08/12 05:12:51;;;;;;;;;;;;;;;24.21;47.77;100896.16;7408234;19;1394;-63
2022/08/12 05:15:19;;;;;;;;;;;;;;;24.38;47.66;100905.97;7409425;19;1595;-63
2022/08/12 05:17:48;;;;;;;;;;;;;;;24.50;47.48;100894.84;7409726;19;1855;-62
2022/08/12 05:20:18;;;;;;;;;;;;;;;24.55;47.35;100914.13;7411804;19;1593;-63
2022/08/12 05:22:48;;;;;;;;;;;;;;;24.63;47.32;100915.97;7411300;19;1666;-63
2022/08/12 05:25:19;;;;;;;;;;;;;;;24.64;47.21;100909.56;7407673;19;1518;-63
2022/08/12 05:27:48;;;;;;;;;;;;;;;24.65;47.18;100897.72;7410699;19;1540;-63
2022/08/12 05:30:17;;;;;;;;;;;;;;;24.66;47.25;100921.91;7410646;19;1601;-63
2022/08/12 05:32:45;;;;;;;;;;;;;;;24.70;47.50;100901.63;7410183;19;1504;-63
2022/08/12 05:35:14;;;;;;;;;;;;;;;24.75;47.03;100910.06;7410842;19;1522;-63
2022/08/12 05:37:42;;;;;;;;;;;;;;;24.76;47.27;100900.09;7410202;19;1845;-63
2022/08/12 05:40:12;;;;;;;;;;;;;;;24.80;47.42;100896.03;7408095;19;1670;-63
2022/08/12 05:42:43;;;;;;;;;;;;;;;24.83;47.28;100903.81;7408440;19;1336;-63
2022/08/12 05:45:12;;;;;;;;;;;;;;;24.81;47.26;100898.56;7409717;19;1337;-63
2022/08/12 05:47:40;;;;;;;;;;;;;;;24.88;46.98;100909.53;7408293;19;1769;-63
2022/08/12 05:50:10;;;;;;;;;;;;;;;24.88;47.17;100916.81;7409882;19;1567;-63
2022/08/12 05:52:38;;;;;;;;;;;;;;;24.91;47.22;100909.22;7409008;19;1743;-62
2022/08/12 05:55:07;;;;;;;;;;;;;;;24.93;47.26;100918.00;7407787;19;1806;-63
2022/08/12 05:57:35;;;;;;;;;;;;;;;24.95;47.33;100926.78;7408808;19;1869;-63
2022/08/12 06:00:07;;;;;;;;;;;;;;;24.94;47.41;100908.03;7408877;19;1724;-63
2022/08/12 06:02:35;;;;;;;;;;;;;;;24.97;47.60;100897.72;7407297;19;1683;-63
2022/08/12 06:05:06;;;;;;;;;;;;;;;24.98;47.38;100910.19;7409448;19;1546;-63
2022/08/12 06:07:34;;;;;;;;;;;;;;;25.01;47.54;100896.34;7405088;19;1761;-63
2022/08/12 06:10:02;;;;;;;;;;;;;;;25.02;47.56;100913.41;7406835;19;1269;-62
2022/08/12 06:12:31;;;;;;;;;;;;;;;25.06;47.80;100916.63;7408902;19;1630;-63
2022/08/12 06:15:00;;;;;;;;;;;;;;;25.07;47.41;100902.06;7409475;19;1555;-63
2022/08/12 06:17:31;;;;;;;;;;;;;;;25.11;47.58;100906.97;7408516;19;1857;-63
2022/08/12 06:20:00;;;;;;;;;;;;;;;25.09;47.60;100908.16;7408207;19;1541;-63
2022/08/12 06:22:28;;;;;;;;;;;;;;;25.09;47.57;100889.22;7407497;19;1764;-63
2022/08/12 06:24:59;;;;;;;;;;;;;;;25.09;47.90;100897.31;7406061;19;1749;-63
2022/08/12 06:27:27;;;;;;;;;;;;;;;25.10;47.66;100902.56;7408084;19;1886;-63
2022/08/12 06:29:57;;;;;;;;;;;;;;;25.13;47.51;100890.56;7408312;19;1547;-63
2022/08/12 06:32:26;;;;;;;;;;;;;;;25.07;48.50;100885.81;7407002;19;1869;-63
2022/08/12 06:34:58;;;;;;;;;;;;;;;23.63;51.05;100882.50;7405862;19;1247;-63
2022/08/12 06:37:26;;;;;;;;;;;;;;;22.49;51.54;100908.75;7402671;19;1865;-63
2022/08/12 06:39:55;;;;;;;;;;;;;;;21.96;51.44;100910.34;7405561;19;1500;-61
2022/08/12 06:45:04;;;;;;;;;;;;;;;21.53;50.72;100911.88;7402189;19;1648;-62
2022/08/12 06:47:37;;;;;;;;;;;;;;;21.39;50.34;100908.66;7407276;19;1270;-62
2022/08/12 06:50:10;;;;;;;;;;;;;;;21.26;50.23;100908.97;7407576;19;1591;-55
2022/08/12 06:52:38;;;;;;;;;;;;;;;21.24;49.81;100918.19;7406762;19;1355;-55
2022/08/12 06:55:07;;;;;;;;;;;;;;;21.08;49.49;100904.50;7407269;19;1655;-55
2022/08/12 06:57:53;;;;;;;;;;;;;;;21.05;49.07;100897.59;7405763;19;1850;-55
2022/08/12 07:00:24;;;;;;;;;;;;;;;21.04;49.03;100896.72;7404017;19;1416;-54
2022/08/12 07:02:54;;;;;;;;;;;;;;;20.93;48.52;100904.97;7405992;19;1488;-55
2022/08/12 07:05:26;;;;;;;;;;;;;;;20.95;48.10;100919.13;7405832;19;1397;-55
2022/08/12 07:08:09;;;;;;;;;;;;;;;20.90;48.29;100902.56;7404870;19;1365;-55
2022/08/12 07:10:41;;;;;;;;;;;;;;;20.86;48.16;100910.06;7405449;19;1807;-55
2022/08/12 07:13:10;;;;;;;;;;;;;;;20.74;47.87;100911.22;7405047;19;1500;-55
2022/08/12 07:15:39;;;;;;;;;;;;;;;20.70;48.04;100919.72;7405960;19;1281;-55
2022/08/12 07:18:14;;;;;;;;;;;;;;;20.68;47.76;100900.22;7405453;19;1848;-55
2022/08/12 07:20:47;;;;;;;;;;;;;;;20.59;47.77;100910.81;7402983;19;1429;-55
2022/08/12 07:23:15;;;;;;;;;;;;;;;20.52;47.85;100904.28;7406317;19;1450;-55
2022/08/12 07:25:44;;;;;;;;;;;;;;;20.57;47.57;100902.03;7405520;19;1301;-55
2022/08/12 07:28:13;;;;;;;;;;;;;;;20.58;47.97;100900.19;7404569;19;1289;-55
2022/08/12 07:30:43;;;;;;;;;;;;;;;20.57;48.39;100910.09;7405136;19;1638;-55
2022/08/12 07:33:14;;;;;;;;;;;;;;;20.58;48.40;100914.44;7402722;19;1789;-55
2022/08/12 07:35:44;;;;;;;;;;;;;;;20.63;48.46;100911.34;7402484;19;1388;-55
2022/08/12 07:38:26;;;;;;;;;;;;;;;20.63;48.55;100877.31;7404042;19;1869;-55
2022/08/12 07:40:56;;;;;;;;;;;;;;;21.78;46.94;100884.25;7404401;19;1428;-54
2022/08/12 07:43:25;;;;;;;;;;;;;;;22.79;45.24;100900.22;7404683;19;1286;-55
2022/08/12 07:45:55;;;;;;;;;;;;;;;23.36;44.18;100886.25;7403308;19;1507;-56
2022/08/12 07:48:24;;;;;;;;;;;;;;;23.65;43.79;100878.78;7405329;19;1308;-56
2022/08/12 07:50:52;;;;;;;;;;;;;;;23.89;44.02;100878.03;7403949;19;1539;-55
2022/08/12 07:53:21;;;;;;;;;;;;;;;24.01;44.14;100874.00;7403243;19;1481;-60
2022/08/12 07:55:52;;;;;;;;;;;;;;;24.19;44.46;100881.97;7403484;19;1559;-57
2022/08/12 07:58:20;;;;;;;;;;;;;;;24.26;44.52;100876.75;7405265;19;1902;-59
2022/08/12 08:00:49;;;;;;;;;;;;;;;24.39;44.78;100874.38;7404581;19;1771;-58
2022/08/12 08:03:17;;;;;;;;;;;;;;;24.42;44.89;100866.78;7403653;19;1340;-58
2022/08/12 08:05:46;;;;;;;;;;;;;;;24.50;44.84;100873.22;7405133;19;1617;-58
2022/08/12 08:08:15;;;;;;;;;;;;;;;24.52;45.26;100877.47;7404943;19;1369;-59
2022/08/12 08:10:43;;;;;;;;;;;;;;;24.52;45.52;100869.34;7404538;19;1359;-59
2022/08/12 08:13:12;;;;;;;;;;;;;;;24.57;45.58;100869.69;7404357;19;1266;-60
2022/08/12 08:15:44;;;;;;;;;;;;;;;24.59;45.60;100872.22;7402580;19;1385;-59
2022/08/12 08:18:14;;;;;;;;;;;;;;;24.63;45.97;100867.31;7403501;19;1849;-60
2022/08/12 08:20:44;;;;;;;;;;;;;;;24.69;46.63;100872.03;7405417;19;1432;-60
2022/08/12 08:23:14;;;;;;;;;;;;;;;24.71;46.81;100875.41;7405042;19;1426;-58
2022/08/12 08:25:42;;;;;;;;;;;;;;;24.78;47.03;100857.50;7402965;19;1372;-59
2022/08/12 08:28:15;;;;;;;;;;;;;;;24.84;46.87;100864.91;7404575;19;1523;-60
2022/08/12 08:30:45;;;;;;;;;;;;;;;24.82;47.03;100866.94;7402501;19;1172;-63
2022/08/12 08:33:14;;;;;;;;;;;;;;;24.86;47.18;100854.78;7402539;19;1331;-61
2022/08/12 08:35:44;;;;;;;;;;;;;;;24.86;47.40;100851.22;7403335;19;1475;-61
2022/08/12 08:38:13;;;;;;;;;;;;;;;24.88;47.63;100863.56;7403701;19;1846;-59
2022/08/12 08:43:26;;;;;;;;;;;;;;;24.93;47.85;100853.09;7404298;19;1316;-62
2022/08/12 08:45:56;;;;;;;;;;;;;;;24.92;47.59;100847.84;7399998;19;1323;-61
2022/08/12 08:48:24;;;;;;;;;;;;;;;24.94;48.11;100854.75;7403792;19;1349;-60
2022/08/12 08:50:53;;;;;;;;;;;;;;;25.02;48.11;100853.88;7402359;19;1328;-60
2022/08/12 08:53:21;;;;;;;;;;;;;;;25.01;48.32;100844.94;7402909;19;1354;-61
2022/08/12 08:55:52;;;;;;;;;;;;;;;25.06;48.24;100847.13;7401242;19;1377;-60
2022/08/12 08:58:21;;;;;;;;;;;;;;;25.10;48.71;100834.09;7401135;19;1849;-59
2022/08/12 09:00:52;;;;;;;;;;;;;;;25.06;48.33;100847.13;7402440;19;1353;-60
2022/08/12 09:03:20;;;;;;;;;;;;;;;24.99;48.29;100838.84;7402931;19;1461;-59
2022/08/12 09:05:49;;;;;;;;;;;;;;;24.94;49.18;100848.50;7401108;19;1483;-59
2022/08/12 09:08:18;;;;;;;;;;;;;;;24.36;50.96;100836.91;7402585;19;1380;-59
2022/08/12 09:10:47;;;;;;;;;;;;;;;24.12;51.51;100833.16;7399420;19;1752;-60
2022/08/12 09:15:58;;;;;;;;;;;;;;;24.97;49.83;100815.72;7402977;19;1289;-59
2022/08/12 09:18:27;;;;;;;;;;;;;;;25.11;50.14;100827.63;7403460;19;1865;-61
2022/08/12 09:20:56;;;;;;;;;;;;;;;25.22;49.87;100816.47;7402732;19;1519;-57
2022/08/12 09:23:26;;;;;;;;;;;;;;;25.30;50.67;100832.69;7403215;19;1607;-57
2022/08/12 09:25:54;;;;;;;;;;;;;;;25.42;50.83;100813.34;7395498;19;1424;-57
2022/08/12 09:28:27;;;;;;;;;;;;;;;25.42;51.15;100807.94;7398213;19;1319;-68
2022/08/12 09:30:57;;;;;;;;;;;;;;;25.48;50.92;100812.63;7399262;19;1318;-64
2022/08/12 09:33:32;;;;;;;;;;;;;;;25.45;51.63;100813.00;7403568;19;1582;-64
2022/08/12 09:36:01;;;;;;;;;;;;;;;25.40;52.29;100824.34;7402167;19;1753;-63
2022/08/12 09:38:30;;;;;;;;;;;;;;;25.34;51.96;100817.78;7401770;19;1823;-64
2022/08/12 09:40:59;;;;;;;;;;;;;;;25.28;51.76;100815.78;7400565;19;1602;-63
2022/08/12 09:46:09;;;;;;;;;;;;;;;25.34;52.17;100801.53;7410279;19;1329;-60
2022/08/12 09:48:39;;;;;;;;;;;;;;;25.28;52.39;100794.13;7409279;19;1527;-63
2022/08/12 09:51:08;;;;;;;;;;;;;;;25.25;53.41;100791.78;7409415;19;1773;-65
2022/08/12 09:53:37;;;;;;;;;;;;;;;25.40;53.18;100800.81;7408282;19;1257;-61
2022/08/12 09:56:05;;;;;;;;;;;;;;;25.43;53.13;100798.78;7408476;19;1369;-64
2022/08/12 09:58:36;;;;;;;;;;;;;;;25.52;53.22;100795.00;7408753;19;1856;-61
2022/08/12 10:01:05;;;;;;;;;;;;;;;25.53;52.79;100794.00;7409090;19;1409;-61
2022/08/12 10:03:35;;;;;;;;;;;;;;;25.45;52.95;100769.69;7409513;19;1484;-61
2022/08/12 10:06:07;;;;;;;;;;;;;;;25.47;52.15;100789.31;7408828;19;1666;-61
2022/08/12 10:08:36;;;;;;;;;;;;;;;25.40;51.81;100768.34;7408493;19;1305;-65
2022/08/12 10:13:47;;;;;;;;;;;;;;;25.51;52.45;100753.56;7408466;19;1454;-65
2022/08/12 10:16:16;;;;;;;;;;;;;;;25.55;52.55;100759.47;7407887;19;1246;-59
2022/08/12 10:18:46;;;;;;;;;;;;;;;25.54;52.61;100768.59;7408921;19;1853;-69
2022/08/12 10:21:17;;;;;;;;;;;;;;;25.47;52.45;100754.09;7409270;19;1242;-66
2022/08/12 10:23:46;;;;;;;;;;;;;;;25.47;52.68;100752.25;7406871;19;1512;-67
2022/08/12 10:31:38;;;;;;;;;;;;;;;24.08;56.37;100756.16;7407986;19;1207;-68
2022/08/12 10:34:08;;;;;;;;;;;;;;;23.43;55.89;100768.53;7406537;19;1689;-66
2022/08/12 10:36:40;;;;;;;;;;;;;;;23.08;55.40;100752.56;7405899;19;1331;-65
2022/08/12 10:39:09;;;;;;;;;;;;;;;22.90;55.07;100760.72;7407600;19;1850;-65
2022/08/12 10:44:19;;;;;;;;;;;;;;;22.63;54.16;100768.84;7406191;19;1447;-66
2022/08/12 10:46:51;;;;;;;;;;;;;;;22.64;53.96;100778.66;7408407;19;1652;-65
2022/08/12 10:49:20;;;;;;;;;;;;;;;22.52;53.18;100731.41;7406954;19;1995;-67
2022/08/12 10:51:51;;;;;;;;;;;;;;;22.27;52.82;100759.19;7408182;19;1327;-66
2022/08/12 10:54:19;;;;;;;;;;;;;;;22.17;52.34;100748.47;7406788;19;1706;-67
2022/08/12 10:56:48;;;;;;;;;;;;;;;22.02;51.79;100756.25;7408314;19;1625;-66
2022/08/12 10:59:18;;;;;;;;;;;;;;;21.86;51.49;100756.97;7407252;19;1853;-67
2022/08/12 11:01:47;;;;;;;;;;;;;;;21.79;51.34;100745.97;7407397;19;1214;-67
2022/08/12 11:04:15;;;;;;;;;;;;;;;21.75;51.06;100747.28;7408915;19;1624;-67
2022/08/12 11:06:46;;;;;;;;;;;;;;;21.60;50.45;100727.28;7408753;19;1251;-67
2022/08/12 11:09:19;;;;;;;;;;;;;;;21.54;50.29;100730.59;7405440;19;1758;-67
2022/08/12 11:11:47;;;;;;;;;;;;;;;21.51;49.95;100731.75;7407423;19;1349;-67
2022/08/12 11:14:17;;;;;;;;;;;;;;;21.43;50.04;100735.22;7407919;19;1286;-66
2022/08/12 11:16:46;;;;;;;;;;;;;;;21.38;49.71;100737.47;7405653;19;1296;-67
2022/08/12 11:19:14;;;;;;;;;;;;;;;21.34;49.35;100730.69;7408326;19;1853;-66
2022/08/12 11:21:42;;;;;;;;;;;;;;;21.31;49.75;100738.22;7406454;19;1312;-61
2022/08/12 11:24:11;;;;;;;;;;;;;;;21.12;49.28;100726.59;7406353;19;1450;-65
2022/08/12 11:26:41;;;;;;;;;;;;;;;20.92;49.49;100725.84;7406683;19;1689;-64
2022/08/12 11:29:10;;;;;;;;;;;;;;;20.80;49.87;100713.59;7404920;19;1777;-63
2022/08/12 11:31:38;;;;;;;;;;;;;;;20.93;49.57;100727.56;7404674;19;1302;-60
2022/08/12 11:34:06;;;;;;;;;;;;;;;20.90;50.14;100719.78;7406233;19;1559;-61
2022/08/12 11:36:35;;;;;;;;;;;;;;;21.10;50.45;100714.31;7402230;19;1169;-57
2022/08/12 11:39:03;;;;;;;;;;;;;;;21.24;50.15;100720.00;7396924;19;1848;-57
2022/08/12 11:41:31;;;;;;;;;;;;;;;21.15;50.46;100706.59;7400850;19;1744;-58
2022/08/12 11:44:02;;;;;;;;;;;;;;;21.79;50.31;100711.00;7397259;19;1250;-57
2022/08/12 11:46:31;;;;;;;;;;;;;;;22.22;50.33;100701.22;7400865;19;1588;-59
2022/08/12 11:48:59;;;;;;;;;;;;;;;22.40;50.67;100690.41;7400287;19;1602;-58
2022/08/12 11:51:27;;;;;;;;;;;;;;;22.43;51.48;100694.63;7400170;19;1401;-61
2022/08/12 11:53:55;;;;;;;;;;;;;;;22.71;54.44;100702.53;7400334;19;1673;-62
2022/08/12 11:56:24;;;;;;;;;;;;;;;22.78;55.47;100692.75;7400145;19;1327;-61
2022/08/12 11:58:52;;;;;;;;;;;;;;;22.57;55.63;100690.50;7398845;19;1865;-60
2022/08/12 12:01:23;;;;;;;;;;;;;;;22.28;55.04;100701.59;7401847;19;1364;-65
2022/08/12 12:03:51;;;;;;;;;;;;;;;21.88;55.78;100695.72;7401946;19;1222;-64
2022/08/12 12:06:20;;;;;;;;;;;;;;;21.95;56.02;100685.22;7399745;19;1556;-57
2022/08/12 12:08:49;;;;;;;;;;;;;;;22.59;58.18;100683.94;7397797;19;1645;-59
2022/08/12 12:11:17;;;;;;;;;;;;;;;22.88;58.10;100661.16;7401593;19;1575;-58
2022/08/12 12:13:46;;;;;;;;;;;;;;;23.09;57.75;100676.06;7398960;19;1453;-58
2022/08/12 12:16:14;;;;;;;;;;;;;;;23.00;56.47;100665.22;7398312;19;1534;-59
2022/08/12 12:18:45;;;;;;;;;;;;;;;22.86;55.94;100678.47;7392448;19;1720;-58
2022/08/12 12:21:14;;;;;;;;;;;;;;;22.85;56.80;100683.03;7395154;19;1857;-59
2022/08/12 12:23:42;;;;;;;;;;;;;;;22.97;57.51;100670.94;7291815;19;15714;-58
2022/08/12 12:26:11;;;;;;;;;;;;;;;23.00;58.28;100645.50;7398890;19;1334;-61
2022/08/12 12:28:41;;;;;;;;;;;;;;;23.24;59.65;100660.94;7397636;19;1246;-59
2022/08/12 12:31:10;;;;;;;;;;;;;;;23.46;59.30;100664.84;7398165;19;1306;-61
2022/08/12 12:33:39;;;;;;;;;;;;;;;23.56;59.55;100632.28;7399573;19;1278;-60
2022/08/12 12:36:10;;;;;;;;;;;;;;;23.63;60.37;100633.28;7399319;19;1298;-58
2022/08/12 12:38:39;;;;;;;;;;;;;;;23.72;60.70;100631.44;7399669;19;1651;-60
2022/08/12 12:41:07;;;;;;;;;;;;;;;23.70;61.74;100634.28;7387928;19;1845;-59
2022/08/12 12:43:36;;;;;;;;;;;;;;;23.80;61.97;100639.56;7398966;19;2111;-63
2022/08/12 12:46:05;;;;;;;;;;;;;;;23.94;61.63;100619.13;7394457;19;1314;-62
2022/08/12 12:48:33;;;;;;;;;;;;;;;24.10;61.71;100624.47;7400936;19;1637;-56
2022/08/12 12:53:46;;;;;;;;;;;;;;;24.16;62.03;100623.78;7400934;19;1262;-58
2022/08/12 12:56:19;;;;;;;;;;;;;;;24.17;61.72;100624.59;7394377;19;1513;-57
2022/08/12 12:58:48;;;;;;;;;;;;;;;23.94;61.96;100621.81;7401322;19;1365;-58
2022/08/12 13:01:17;;;;;;;;;;;;;;;23.63;62.55;100611.69;7395999;19;1866;-57
2022/08/12 13:03:47;;;;;;;;;;;;;;;23.60;62.42;100620.13;7400462;19;1582;-59
2022/08/12 13:06:15;;;;;;;;;;;;;;;23.52;61.34;100598.53;7399201;19;1643;-56
2022/08/12 13:08:46;;;;;;;;;;;;;;;23.44;61.12;100607.47;7400672;19;1546;-56
2022/08/12 13:11:14;;;;;;;;;;;;;;;23.49;61.03;100617.75;7400423;19;1559;-57
2022/08/12 13:13:42;;;;;;;;;;;;;;;23.53;61.07;100611.00;7402884;19;1606;-56
2022/08/12 13:16:16;;;;;;;;;;;;;;;23.38;61.31;100584.72;7403293;19;1653;-56
2022/08/12 13:18:45;;;;;;;;;;;;;;;23.33;61.09;100600.53;7405607;19;1634;-56
2022/08/12 13:21:16;;;;;;;;;;;;;;;23.41;61.16;100611.34;7407984;19;1853;-58
2022/08/12 13:23:47;;;;;;;;;;;;;;;23.43;61.15;100601.22;7410174;19;1528;-64
2022/08/12 13:26:16;;;;;;;;;;;;;;;23.41;61.34;100592.44;7411340;19;1622;-61
2022/08/12 13:28:46;;;;;;;;;;;;;;;23.37;61.19;100585.72;7410213;19;1673;-64
2022/08/12 13:31:16;;;;;;;;;;;;;;;23.42;61.16;100606.81;7410378;19;1759;-61
2022/08/12 13:33:46;;;;;;;;;;;;;;;23.27;61.43;100589.59;7410736;19;1811;-63
2022/08/12 13:36:15;;;;;;;;;;;;;;;23.32;61.21;100601.56;7410292;19;1576;-63
2022/08/12 13:38:45;;;;;;;;;;;;;;;23.30;61.29;100584.72;7411265;19;1543;-60
2022/08/12 13:41:31;;;;;;;;;;;;;;;23.34;60.89;100586.06;7407651;19;1864;-61
2022/08/12 13:43:59;;;;;;;;;;;;;;;23.30;60.91;100584.72;7409987;19;1434;-57
2022/08/12 13:46:27;;;;;;;;;;;;;;;23.40;60.65;100579.97;7410154;19;1642;-57
2022/08/12 13:48:56;;;;;;;;;;;;;;;23.38;60.70;100576.63;7409388;19;1551;-56
2022/08/12 13:51:24;;;;;;;;;;;;;;;23.47;60.30;100582.84;7407433;19;1247;-57
2022/08/12 13:53:53;;;;;;;;;;;;;;;23.40;60.15;100577.28;7408731;19;1325;-57
2022/08/12 13:56:25;;;;;;;;;;;;;;;23.59;59.98;100573.38;7410340;19;1761;-55
2022/08/12 13:58:54;;;;;;;;;;;;;;;24.09;58.75;100584.13;7408527;19;1241;-57
2022/08/12 14:01:22;;;;;;;;;;;;;;;24.40;57.96;100576.06;7405652;19;1853;-56
2022/08/12 14:03:52;;;;;;;;;;;;;;;24.54;58.10;100578.06;7410698;19;1726;-59
2022/08/12 14:06:21;;;;;;;;;;;;;;;24.63;58.19;100559.06;7409287;19;1811;-57
2022/08/12 14:08:49;;;;;;;;;;;;;;;24.63;58.69;100569.88;7409151;19;1524;-57
2022/08/12 14:11:18;;;;;;;;;;;;;;;24.67;57.81;100560.41;7409210;19;1637;-57
2022/08/12 14:13:51;;;;;;;;;;;;;;;24.24;60.28;100576.16;7406767;19;1289;-57
2022/08/12 14:16:20;;;;;;;;;;;;;;;23.12;60.12;100571.38;7407648;19;1261;-57
2022/08/12 14:18:49;;;;;;;;;;;;;;;22.39;60.19;100591.72;7407393;19;1749;-57
2022/08/12 14:21:19;;;;;;;;;;;;;;;22.09;59.20;100594.94;7402219;19;1854;-57
2022/08/12 14:23:51;;;;;;;;;;;;;;;22.16;58.19;100585.19;7407827;19;1501;-57
2022/08/12 14:26:23;;;;;;;;;;;;;;;22.44;57.42;100573.22;7406783;19;1356;-57
2022/08/12 14:28:55;;;;;;;;;;;;;;;22.64;57.57;100572.94;7403382;19;1231;-57
2022/08/12 14:31:23;;;;;;;;;;;;;;;22.78;57.76;100566.91;7404157;19;1365;-57
2022/08/12 14:33:52;;;;;;;;;;;;;;;22.93;58.53;100556.31;7399824;19;1275;-60
2022/08/12 14:36:22;;;;;;;;;;;;;;;23.13;59.36;100553.34;7395456;19;1560;-60
2022/08/12 14:38:52;;;;;;;;;;;;;;;23.20;60.31;100551.66;7394970;19;1611;-60
2022/08/12 14:41:21;;;;;;;;;;;;;;;23.33;61.52;100562.78;7397808;19;1849;-60
2022/08/12 14:43:50;;;;;;;;;;;;;;;23.39;62.20;100556.69;7402462;19;1653;-60
2022/08/12 14:46:22;;;;;;;;;;;;;;;23.37;62.75;100555.19;7402565;19;1650;-60
2022/08/12 14:48:52;;;;;;;;;;;;;;;23.44;63.01;100542.72;7405569;19;1539;-60
2022/08/12 14:51:22;;;;;;;;;;;;;;;23.47;63.30;100549.63;7406707;19;1656;-60
2022/08/12 14:53:51;;;;;;;;;;;;;;;23.55;63.53;100553.13;7406671;19;1262;-61